地図

経路データ

SID SEASON NUMBER BASIN SUBBASIN NAME ISO_TIME NATURE LAT LON WMO_WIND WMO_PRES WMO_AGENCY TRACK_TYPE DIST2LAND LANDFALL IFLAG USA_AGENCY USA_ATCF_ID USA_LAT USA_LON USA_RECORD USA_STATUS USA_WIND USA_PRES USA_SSHS USA_R34_NE USA_R34_SE USA_R34_SW USA_R34_NW USA_R50_NE USA_R50_SE USA_R50_SW USA_R50_NW USA_R64_NE USA_R64_SE USA_R64_SW USA_R64_NW USA_POCI USA_ROCI USA_RMW USA_EYE TOKYO_LAT TOKYO_LON TOKYO_GRADE TOKYO_WIND TOKYO_PRES TOKYO_R50_DIR TOKYO_R50_LONG TOKYO_R50_SHORT TOKYO_R30_DIR TOKYO_R30_LONG TOKYO_R30_SHORT TOKYO_LAND CMA_LAT CMA_LON CMA_CAT CMA_WIND CMA_PRES HKO_LAT HKO_LON HKO_CAT HKO_WIND HKO_PRES NEWDELHI_LAT NEWDELHI_LON NEWDELHI_GRADE NEWDELHI_WIND NEWDELHI_PRES NEWDELHI_CI NEWDELHI_DP NEWDELHI_POCI REUNION_LAT REUNION_LON REUNION_TYPE REUNION_WIND REUNION_PRES REUNION_TNUM REUNION_CI REUNION_RMW REUNION_R34_NE REUNION_R34_SE REUNION_R34_SW REUNION_R34_NW REUNION_R50_NE REUNION_R50_SE REUNION_R50_SW REUNION_R50_NW REUNION_R64_NE REUNION_R64_SE REUNION_R64_SW REUNION_R64_NW BOM_LAT BOM_LON BOM_TYPE BOM_WIND BOM_PRES BOM_TNUM BOM_CI BOM_RMW BOM_R34_NE BOM_R34_SE BOM_R34_SW BOM_R34_NW BOM_R50_NE BOM_R50_SE BOM_R50_SW BOM_R50_NW BOM_R64_NE BOM_R64_SE BOM_R64_SW BOM_R64_NW BOM_ROCI BOM_POCI BOM_EYE BOM_POS_METHOD BOM_PRES_METHOD NADI_LAT NADI_LON NADI_CAT NADI_WIND NADI_PRES WELLINGTON_LAT WELLINGTON_LON WELLINGTON_WIND WELLINGTON_PRES DS824_LAT DS824_LON DS824_STAGE DS824_WIND DS824_PRES TD9636_LAT TD9636_LON TD9636_STAGE TD9636_WIND TD9636_PRES TD9635_LAT TD9635_LON TD9635_WIND TD9635_PRES TD9635_ROCI NEUMANN_LAT NEUMANN_LON NEUMANN_CLASS NEUMANN_WIND NEUMANN_PRES MLC_LAT MLC_LON MLC_CLASS MLC_WIND MLC_PRES USA_GUST BOM_GUST BOM_GUST_PER REUNION_GUST REUNION_GUST_PER USA_SEAHGT USA_SEARAD_NE USA_SEARAD_SE USA_SEARAD_SW USA_SEARAD_NW STORM_SPEED STORM_DIR
1894296N15068 1894 50 NI AS NOT_NAMED 1894-10-23 00:00:00 TS 15.2000 67.7000 main 616 613 _________O____ -1 15.2000 67.7000 TC 34 2 335
1894296N15068 1894 50 NI AS NOT_NAMED 1894-10-23 03:00:00 TS 15.2950 67.6667 main 613 613 _________PO___ -1 15.3425 67.6500 TC 36 15.2000 67.7000 2 3 341
1894296N15068 1894 50 NI AS NOT_NAMED 1894-10-23 06:00:00 TS 15.4431 67.6169 main 621 617 _________OP___ -1 15.5000 67.6000 TC 39 15.3578 67.6422 2 3 343
1894296N15068 1894 50 NI AS NOT_NAMED 1894-10-23 09:00:00 TS 15.6154 67.5661 main 617 615 _________PP___ -1 15.6850 67.5500 TC 42 15.5225 67.5875 2 4 344
1894296N15068 1894 50 NI AS NOT_NAMED 1894-10-23 12:00:00 TS 15.8005 67.5195 main 624 621 _________OP___ -1 15.9000 67.5000 TC 45 15.7010 67.5391 2 4 347
1894296N15068 1894 50 NI AS NOT_NAMED 1894-10-23 15:00:00 TS 16.0250 67.4675 main 621 618 _________PO___ -1 16.1500 67.4351 TC 45 15.9000 67.5000 3 5 350
1894296N15068 1894 50 NI AS NOT_NAMED 1894-10-23 18:00:00 TS 16.2614 67.4367 main 608 590 _________OP___ -1 16.4000 67.4000 TC 45 16.1228 67.4734 3 5 358
1894296N15068 1894 50 NI AS NOT_NAMED 1894-10-23 21:00:00 TS 16.4862 67.4487 main 590 566 _________PP___ -1 16.6150 67.4350 TC 45 16.3575 67.4625 3 4 6
1894296N15068 1894 50 NI AS NOT_NAMED 1894-10-24 00:00:00 TS 16.6942 67.4852 main 566 547 _________OP___ -1 16.8000 67.5000 TC 45 16.5884 67.4703 3 4 9
1894296N15068 1894 50 NI AS NOT_NAMED 1894-10-24 03:00:00 TS 16.8787 67.5213 main 547 532 _________PO___ -1 16.9575 67.5425 TC 45 16.8000 67.5000 3 4 15
1894296N15068 1894 50 NI AS NOT_NAMED 1894-10-24 06:00:00 TS 17.0338 67.5767 main 532 507 _________OP___ -1 17.1000 67.6000 TC 45 16.9675 67.5534 3 3 25
1894296N15068 1894 50 NI AS NOT_NAMED 1894-10-24 09:00:00 TS 17.1788 67.6637 main 507 492 _________PP___ -1 17.2425 67.7000 TC 45 17.1150 67.6275 3 3 30
1894296N15068 1894 50 NI AS NOT_NAMED 1894-10-24 12:00:00 TS 17.3275 67.7564 main 492 474 _________OP___ -1 17.4000 67.8000 TC 45 17.2550 67.7128 3 4 26
1894296N15068 1894 50 NI AS NOT_NAMED 1894-10-24 15:00:00 TS 17.5000 67.8250 main 474 450 _________PO___ -1 17.6000 67.8500 TC 45 17.4000 67.8000 3 4 17
1894296N15068 1894 50 NI AS NOT_NAMED 1894-10-24 18:00:00 TS 17.6777 67.8714 main 450 440 _________OP___ -1 17.8000 67.9000 TC 45 17.5555 67.8429 3 3 16
1894296N15068 1894 50 NI AS NOT_NAMED 1894-10-24 21:00:00 TS 17.8311 67.9304 main 440 416 _________PP___ -1 17.9424 67.9701 TC 45 17.7197 67.8906 3 4 25
1894296N15068 1894 50 NI AS NOT_NAMED 1894-10-25 00:00:00 TS 17.9996 68.0340 main 416 386 _________OP___ -1 18.1000 68.1000 TC 45 17.8991 67.9680 3 5 34
1894296N15068 1894 50 NI AS NOT_NAMED 1894-10-25 03:00:00 TS 18.2175 68.2100 main 386 346 _________PO___ -1 18.3350 68.3200 TC 45 18.1000 68.1000 3 6 41
1894296N15068 1894 50 NI AS NOT_NAMED 1894-10-25 06:00:00 TS 18.4684 68.4586 main 340 309 _________OP___ -1 18.6000 68.6000 TC 45 18.3367 68.3172 3 7 45
1894296N15068 1894 50 NI AS NOT_NAMED 1894-10-25 09:00:00 TS 18.7251 68.7448 main 309 264 _________PP___ -1 18.8575 68.9000 TC 45 18.5927 68.5896 3 8 48
1894296N15068 1894 50 NI AS NOT_NAMED 1894-10-25 12:00:00 TS 18.9762 69.0461 main 264 227 _________OP___ -1 19.1000 69.2000 TC 45 18.8523 68.8922 3 7 49
1894296N15068 1894 50 NI AS NOT_NAMED 1894-10-25 15:00:00 TS 19.2037 69.3251 main 227 191 _________PO___ -1 19.3074 69.4501 TC 45 19.1000 69.2000 3 7 50
1894296N15068 1894 50 NI AS NOT_NAMED 1894-10-25 18:00:00 TS 19.3995 69.5815 main 191 161 _________OP___ -1 19.5000 69.7000 TC 45 19.3240 69.4925 3 6 52
1894296N15068 1894 50 NI AS NOT_NAMED 1894-10-25 21:00:00 TS 19.5956 69.8569 main 154 124 _________PP___ -1 19.6977 69.9873 TC 45 19.5276 69.7699 3 6 53
1894296N15068 1894 50 NI AS NOT_NAMED 1894-10-26 00:00:00 TS 19.7782 70.1249 main 124 103 _________OP___ -1 19.9000 70.3000 TC 45 19.7173 70.0373 3 5 54
1894296N15068 1894 50 NI AS NOT_NAMED 1894-10-26 03:00:00 NR 19.9000 70.3000 main 103 __________O___ -1 TC 19.9000 70.3000 3 4 53

IBTrACS Databaseについて

本データベースは、米国NOAAが公開する1842年以降の世界の熱帯低気圧のベストトラックデータアーカイブInternational Best Track Archive for Climate Stewardship (IBTrACS)を、ウェブで閲覧しやすい形式に変換したものです。

最終更新日:2021-10-21